sensor_id;sensor_type;location;lat;lon;timestamp;temperature;humidity
19654;DHT22;9975;48.046;7.804;2024-03-23T01:55:48;14.90;44.00
19654;DHT22;9975;48.046;7.804;2024-03-23T01:58:15;14.90;45.50
19654;DHT22;9975;48.046;7.804;2024-03-23T02:00:41;14.90;45.00
19654;DHT22;9975;48.046;7.804;2024-03-23T02:03:25;14.80;45.20
19654;DHT22;9975;48.046;7.804;2024-03-23T02:05:53;14.80;45.30
19654;DHT22;9975;48.046;7.804;2024-03-23T02:08:20;14.80;45.60
19654;DHT22;9975;48.046;7.804;2024-03-23T02:10:50;14.80;46.00
19654;DHT22;9975;48.046;7.804;2024-03-23T02:13:17;14.90;45.90
19654;DHT22;9975;48.046;7.804;2024-03-23T02:15:43;14.80;46.40
19654;DHT22;9975;48.046;7.804;2024-03-23T02:18:10;14.90;46.60
19654;DHT22;9975;48.046;7.804;2024-03-23T02:20:36;14.90;46.40
19654;DHT22;9975;48.046;7.804;2024-03-23T02:23:02;14.90;46.50
19654;DHT22;9975;48.046;7.804;2024-03-23T02:25:27;14.80;47.00
19654;DHT22;9975;48.046;7.804;2024-03-23T02:27:53;14.80;47.20
19654;DHT22;9975;48.046;7.804;2024-03-23T02:30:20;14.80;47.40
19654;DHT22;9975;48.046;7.804;2024-03-23T02:32:46;14.80;47.80
19654;DHT22;9975;48.046;7.804;2024-03-23T02:35:12;14.70;48.00
19654;DHT22;9975;48.046;7.804;2024-03-23T02:37:37;14.70;48.60
19654;DHT22;9975;48.046;7.804;2024-03-23T02:40:03;14.70;48.80
19654;DHT22;9975;48.046;7.804;2024-03-23T02:42:29;14.70;49.50
19654;DHT22;9975;48.046;7.804;2024-03-23T02:44:54;14.70;50.00
19654;DHT22;9975;48.046;7.804;2024-03-23T02:47:20;14.60;50.30
19654;DHT22;9975;48.046;7.804;2024-03-23T02:49:46;14.60;50.40
19654;DHT22;9975;48.046;7.804;2024-03-23T02:52:11;14.50;50.90
19654;DHT22;9975;48.046;7.804;2024-03-23T02:54:37;14.50;51.10
19654;DHT22;9975;48.046;7.804;2024-03-23T02:57:02;14.50;51.40
19654;DHT22;9975;48.046;7.804;2024-03-23T03:01:54;14.30;51.60
19654;DHT22;9975;48.046;7.804;2024-03-23T03:04:20;14.30;52.00
19654;DHT22;9975;48.046;7.804;2024-03-23T03:06:49;14.20;52.40
19654;DHT22;9975;48.046;7.804;2024-03-23T03:09:14;14.30;53.00
19654;DHT22;9975;48.046;7.804;2024-03-23T03:11:40;14.20;53.20
19654;DHT22;9975;48.046;7.804;2024-03-23T03:14:06;14.20;53.30
19654;DHT22;9975;48.046;7.804;2024-03-23T03:16:33;14.20;54.20
19654;DHT22;9975;48.046;7.804;2024-03-23T03:18:59;14.20;54.00
19654;DHT22;9975;48.046;7.804;2024-03-23T03:21:24;14.20;54.40
19654;DHT22;9975;48.046;7.804;2024-03-23T03:23:50;14.20;54.80
19654;DHT22;9975;48.046;7.804;2024-03-23T03:26:17;14.20;55.50
19654;DHT22;9975;48.046;7.804;2024-03-23T03:28:43;14.20;55.00
19654;DHT22;9975;48.046;7.804;2024-03-23T03:31:09;14.40;55.40
19654;DHT22;9975;48.046;7.804;2024-03-23T03:33:35;14.20;55.90
19654;DHT22;9975;48.046;7.804;2024-03-23T03:36:00;14.20;56.20
19654;DHT22;9975;48.046;7.804;2024-03-23T03:38:26;14.20;56.50
19654;DHT22;9975;48.046;7.804;2024-03-23T03:40:51;14.20;56.60
19654;DHT22;9975;48.046;7.804;2024-03-23T03:43:18;14.20;56.90
19654;DHT22;9975;48.046;7.804;2024-03-23T03:45:53;14.20;57.30
19654;DHT22;9975;48.046;7.804;2024-03-23T03:48:19;14.30;57.20
19654;DHT22;9975;48.046;7.804;2024-03-23T03:50:45;14.30;57.70
19654;DHT22;9975;48.046;7.804;2024-03-23T03:53:11;14.30;58.20
19654;DHT22;9975;48.046;7.804;2024-03-23T03:55:36;14.30;58.50
19654;DHT22;9975;48.046;7.804;2024-03-23T04:00:28;14.20;58.70
19654;DHT22;9975;48.046;7.804;2024-03-23T04:02:53;14.20;59.70
19654;DHT22;9975;48.046;7.804;2024-03-23T04:05:19;14.20;60.70
19654;DHT22;9975;48.046;7.804;2024-03-23T04:07:45;14.10;61.70
19654;DHT22;9975;48.046;7.804;2024-03-23T04:10:11;14.10;62.60
19654;DHT22;9975;48.046;7.804;2024-03-23T04:12:37;14.00;63.80
19654;DHT22;9975;48.046;7.804;2024-03-23T04:15:03;13.90;64.40
19654;DHT22;9975;48.046;7.804;2024-03-23T04:17:31;13.90;65.30
19654;DHT22;9975;48.046;7.804;2024-03-23T04:20:00;13.90;66.10
19654;DHT22;9975;48.046;7.804;2024-03-23T04:22:26;13.90;67.00
19654;DHT22;9975;48.046;7.804;2024-03-23T04:24:58;13.90;67.70
19654;DHT22;9975;48.046;7.804;2024-03-23T04:27:24;13.90;68.60
19654;DHT22;9975;48.046;7.804;2024-03-23T04:29:53;13.80;69.00
19654;DHT22;9975;48.046;7.804;2024-03-23T04:32:18;13.80;69.50
19654;DHT22;9975;48.046;7.804;2024-03-23T04:34:44;13.80;70.20
19654;DHT22;9975;48.046;7.804;2024-03-23T04:37:11;13.80;71.50
19654;DHT22;9975;48.046;7.804;2024-03-23T04:39:37;13.80;72.40
19654;DHT22;9975;48.046;7.804;2024-03-23T04:42:03;13.80;73.10
19654;DHT22;9975;48.046;7.804;2024-03-23T04:44:29;13.80;74.50
19654;DHT22;9975;48.046;7.804;2024-03-23T04:46:56;13.70;76.60
19654;DHT22;9975;48.046;7.804;2024-03-23T04:49:22;13.70;77.40
19654;DHT22;9975;48.046;7.804;2024-03-23T04:51:47;13.70;78.60
19654;DHT22;9975;48.046;7.804;2024-03-23T04:54:13;13.60;83.20
19654;DHT22;9975;48.046;7.804;2024-03-23T04:56:39;13.30;92.30
19654;DHT22;9975;48.046;7.804;2024-03-23T05:01:31;13.20;94.00
19654;DHT22;9975;48.046;7.804;2024-03-23T05:03:57;13.10;97.30
19654;DHT22;9975;48.046;7.804;2024-03-23T05:06:23;13.10;97.40
19654;DHT22;9975;48.046;7.804;2024-03-23T05:08:49;12.90;99.80
19654;DHT22;9975;48.046;7.804;2024-03-23T05:11:15;12.90;99.90
19654;DHT22;9975;48.046;7.804;2024-03-23T05:13:41;12.70;99.90
19654;DHT22;9975;48.046;7.804;2024-03-23T05:16:07;12.60;99.90
19654;DHT22;9975;48.046;7.804;2024-03-23T05:18:34;12.60;99.90
19654;DHT22;9975;48.046;7.804;2024-03-23T05:21:00;12.50;99.90
19654;DHT22;9975;48.046;7.804;2024-03-23T05:23:27;12.60;99.90
19654;DHT22;9975;48.046;7.804;2024-03-23T05:25:53;12.60;99.90
19654;DHT22;9975;48.046;7.804;2024-03-23T05:28:19;12.60;99.90
19654;DHT22;9975;48.046;7.804;2024-03-23T05:30:53;12.50;99.90
19654;DHT22;9975;48.046;7.804;2024-03-23T05:33:20;12.40;99.90
19654;DHT22;9975;48.046;7.804;2024-03-23T05:35:46;12.40;99.90
19654;DHT22;9975;48.046;7.804;2024-03-23T05:38:11;12.40;99.90
19654;DHT22;9975;48.046;7.804;2024-03-23T05:40:37;12.40;99.90
19654;DHT22;9975;48.046;7.804;2024-03-23T05:43:08;12.30;99.90
19654;DHT22;9975;48.046;7.804;2024-03-23T05:45:34;12.40;99.90
19654;DHT22;9975;48.046;7.804;2024-03-23T05:48:00;12.40;99.90
19654;DHT22;9975;48.046;7.804;2024-03-23T05:50:26;12.20;99.90
19654;DHT22;9975;48.046;7.804;2024-03-23T05:52:52;12.20;99.90
19654;DHT22;9975;48.046;7.804;2024-03-23T05:55:18;12.20;99.90
19654;DHT22;9975;48.046;7.804;2024-03-23T05:57:43;12.20;99.90
19654;DHT22;9975;48.046;7.804;2024-03-23T06:00:11;11.90;99.90
19654;DHT22;9975;48.046;7.804;2024-03-23T06:02:44;11.90;99.90
19654;DHT22;9975;48.046;7.804;2024-03-23T06:05:13;11.80;99.90
19654;DHT22;9975;48.046;7.804;2024-03-23T06:07:39;11.60;99.90
19654;DHT22;9975;48.046;7.804;2024-03-23T06:10:05;11.60;99.90
19654;DHT22;9975;48.046;7.804;2024-03-23T06:12:31;11.50;99.90
19654;DHT22;9975;48.046;7.804;2024-03-23T06:14:57;11.60;99.90
19654;DHT22;9975;48.046;7.804;2024-03-23T06:17:23;11.40;99.90
19654;DHT22;9975;48.046;7.804;2024-03-23T06:19:49;11.30;99.90
19654;DHT22;9975;48.046;7.804;2024-03-23T06:22:15;11.30;99.90
